首页
METAR-TAF:

METAR-TAF

机场 :

Borden, 安大略省, 加拿大

纬度: 44-15N, 经度: 079-55W, 海拔: 223米

当前天气观测

该预报发布于22分钟前的17:00 UTC
风速5节,风向,在西转西北东转东南之间变化
温度 23°C
湿度 73%
气压 1011 hPa
能見度: 14.5公里
阴天层高于1800英尺
阴天层高于4800英尺
阴天层高于5600英尺

METAR: CYBN 041700Z AUTO 36005KT 300V110 9SM OVC018 OVC048 OVC056 23/18 A2986 RMK SLP110

时间: 13:22 (17:22 UTC)

预报

该预报发布于1小时和59分钟前的15:23 UTC
预报有效从04日的 15点(UTC)到 04日的 24点(UTC)
风速5节,风向
能見度: 10公里
少量云层高于500英尺
散云层高于1500英尺
阴天层高于5000英尺
短暂存在
从 04日的 15点(UTC)到 04日的 21点(UTC)
能見度: 6.4公里
多云层高于500英尺
阴天层高于1500英尺
小阵雨, 轻雾
几率 30%
从 04日的 16点(UTC)到 04日的 21点(UTC)
风速15节,风向多变,有时为25节阵风
能見度: 3.2公里
多云层高于500英尺
阴天层高于1500英尺, 积雨云.
雷暴, 雨, 轻雾
从 04日的 2100点(UTC)
风速5节,风向北转东北
能見度: 6.4公里
多云层高于800英尺
小毛毛雨, 轻雾
短暂存在
从 04日的 21点(UTC)到 04日的 24点(UTC)
能見度: 10公里
散云层高于800英尺
多云层高于1200英尺

TAF: CYBN 041523Z 0415/0424 35005KT P6SM FEW005 SCT015 OVC050 TEMPO 0415/0421 4SM -SHRA BR BKN005 OVC015 PROB30 0416/0421 VRB15G25KT 2SM TSRA BR BKN005 OVC015CB FM042100 03005KT 4SM -DZ BR BKN008 TEMPO 0421/0424 P6SM NSW SCT008 BKN012 RMK FCST BASED ON AUTO OBS. NXT FCST BY 041800Z

超过4000个机场的气象观测和天气预报(METAR&TAF报告)。

可查询的气象台以黄色和红色小点在地图上表示。

将鼠标移到小点上方,可查看气象台名称。

然后点击查看天气观测和预报。

如需切换地图:点击带黑十字的绿色按钮放大地图;点击带横线的绿色按钮缩小地图;或者点击绿色箭头查看邻近地区的地图。


METAR-TAF: